This is the latest recevied weather packets stored in our database for station/object KO4RJX-11. If no packets are shown the sender has not sent any weather packets the latest 10 day(s).
| Time | Temp. | Humidity | Pressure | Rain* | Wind** | Luminosity | Snow |
|---|---|---|---|---|---|---|---|
| 1777695193 | 11.11° C | 96% | 1007.6 hPa | 0 mm | - | - | - |
| 1777693723 | 11.11° C | 96% | 1007.6 hPa | 1.78 mm | - | - | - |
| 1777692393 | 11.11° C | 97% | 1007.9 hPa | 1.78 mm | - | - | - |
| 1777691593 | 11.11° C | 97% | 1008.3 hPa | 1.78 mm | - | - | - |
| 1777689724 | 11.11° C | 94% | 1008.3 hPa | 1.78 mm | - | - | - |
| 1777688393 | 11.11° C | 93% | 1008.3 hPa | 1.78 mm | - | - | - |
| 1777685593 | 11.11° C | 89% | 1007.9 hPa | 1.78 mm | - | - | - |
| 1777685193 | 11.11° C | 92% | 1008.3 hPa | 1.78 mm | - | - | - |
| 1777684793 | 11.11° C | 92% | 1008.3 hPa | 1.78 mm | - | - | - |
| 1777682794 | 11.67° C | 90% | 1007.9 hPa | 1.78 mm | - | - | - |
| 1777677593 | 12.78° C | 80% | 1007.9 hPa | 1.78 mm | - | - | - |
| 1777676793 | 13.33° C | 77% | 1007.9 hPa | 1.78 mm | - | - | - |
| 1777673192 | 12.22° C | 78% | 1008.3 hPa | 1.78 mm | - | - | - |
| 1777672393 | 12.78° C | 75% | 1008.3 hPa | 1.78 mm | - | - | - |
| 1777669592 | 12.22° C | 79% | 1008.6 hPa | 1.78 mm | - | - | - |
| 1777669193 | 12.22° C | 78% | 1008.6 hPa | 1.78 mm | - | - | - |
| 1777667593 | 12.78° C | 76% | 1008.6 hPa | 1.78 mm | - | - | - |
| 1777664792 | 11.11° C | 88% | 1009.3 hPa | 1.78 mm | - | - | - |
| 1777662392 | 11.11° C | 90% | 1010 hPa | 1.78 mm | - | - | - |
| 1777660793 | 10.56° C | 92% | 1010.3 hPa | 1.78 mm | - | - | - |
| 1777657325 | 15.56° C | 46% | 1010 hPa | 0.25 mm | - | - | - |
| 1777655992 | 15.56° C | 46% | 1010.3 hPa | 0.25 mm | - | - | - |
| 1777653725 | 15° C | 47% | 1010.7 hPa | 0.25 mm | - | - | - |
| 1777649992 | 13.89° C | 51% | 1011 hPa | 0.25 mm | - | - | - |
| 1777648392 | 12.78° C | 56% | 1011.4 hPa | 0.25 mm | - | - | - |
* Rain since midnight (hover to see other rain measurements)
** Current wind speed in m/s (hover to see current wind gust speed)